Time;durP1;ratioP1;P1;durP2;ratioP2;P2;SDS_P1;SDS_P2;PMS_P1;PMS_P2;Temp;Humidity;BMP_temperature;BMP_pressure;BME280_temperature;BME280_humidity;BME280_pressure;Samples;Min_cycle;Max_cycle;Signal;HPM_P1;HPM_P2
2023/05/04 00:00:00;;;;;;;;;21.33;18.33;;;;;12.96;48.87;101714.75;5034821;28;45522;-71
2023/05/04 00:02:26;;;;;;;;;20.67;16.00;;;;;12.86;48.63;101699.03;5035348;27;45474;-71
2023/05/04 00:04:52;;;;;;;;;21.00;19.33;;;;;12.91;48.70;101711.31;5034702;28;46989;-71
2023/05/04 00:07:18;;;;;;;;;24.00;19.33;;;;;12.84;48.79;101695.56;5034743;28;45431;-71
2023/05/04 00:09:44;;;;;;;;;20.00;16.33;;;;;12.80;48.61;101687.72;5034920;28;45382;-71
2023/05/04 00:12:09;;;;;;;;;19.33;17.00;;;;;12.84;48.89;101699.97;5034870;28;45450;-71
2023/05/04 00:14:36;;;;;;;;;19.67;18.33;;;;;12.79;48.87;101694.75;5034878;28;47052;-71
2023/05/04 00:17:05;;;;;;;;;22.67;19.00;;;;;12.79;48.99;101694.75;5034748;28;45461;-70
2023/05/04 00:19:31;;;;;;;;;22.33;21.00;;;;;12.69;49.34;101683.47;5034985;27;45458;-71
2023/05/04 00:21:57;;;;;;;;;20.00;19.00;;;;;12.59;48.94;101662.50;5034645;28;45632;-71
2023/05/04 00:24:22;;;;;;;;;21.00;19.67;;;;;12.63;49.27;101672.13;5034286;28;46466;-71
2023/05/04 00:26:47;;;;;;;;;22.00;17.67;;;;;12.46;49.39;101638.03;5034941;28;45365;-71
2023/05/04 00:29:13;;;;;;;;;21.67;17.00;;;;;12.56;49.40;101659.91;5034719;28;45568;-71
2023/05/04 00:31:38;;;;;;;;;21.00;17.67;;;;;12.57;49.57;101664.31;5034983;27;45408;-71
2023/05/04 00:34:03;;;;;;;;;22.33;19.33;;;;;12.61;50.09;101679.22;5034374;28;47209;-71
2023/05/04 00:36:29;;;;;;;;;22.33;20.00;;;;;12.51;50.05;101665.28;5034192;28;45410;-71
2023/05/04 00:38:54;;;;;;;;;24.33;21.33;;;;;12.46;49.61;101661.81;5034642;28;45366;-71
2023/05/04 00:41:20;;;;;;;;;19.67;18.00;;;;;12.52;50.34;101683.75;5034795;28;45197;-71
2023/05/04 00:43:47;;;;;;;;;20.33;20.00;;;;;12.43;50.20;101675.97;5034079;28;46451;-71
2023/05/04 00:46:13;;;;;;;;;27.67;23.00;;;;;12.32;50.72;101652.34;5033840;28;45318;-71
2023/05/04 00:48:39;;;;;;;;;19.00;18.00;;;;;12.41;50.65;101676.88;5034211;28;45444;-71
2023/05/04 00:51:06;;;;;;;;;22.00;18.67;;;;;12.39;50.70;101674.28;5034472;28;45497;-71
2023/05/04 00:53:31;;;;;;;;;19.00;18.00;;;;;12.39;50.85;101662.81;5034139;27;47236;-71
2023/05/04 00:55:57;;;;;;;;;21.00;18.00;;;;;12.39;50.99;101676.00;5034235;27;45332;-71
2023/05/04 00:58:23;;;;;;;;;20.00;14.00;;;;;12.17;50.68;101623.56;5033564;28;45394;-71
2023/05/04 01:00:48;;;;;;;;;22.00;19.33;;;;;12.38;50.87;101659.31;5034511;27;45450;-71
2023/05/04 01:03:14;;;;;;;;;20.67;19.00;;;;;12.35;50.95;101662.88;5034048;28;45291;-71
2023/05/04 01:05:48;;;;;;;;;20.00;18.33;;;;;12.31;50.84;101662.94;5034136;28;45377;-71
2023/05/04 01:08:17;;;;;;;;;19.00;18.33;;;;;12.27;51.70;101654.22;5033925;27;45330;-71
2023/05/04 01:11:01;;;;;;;;;20.33;19.00;;;;;12.25;50.85;101652.47;5034427;28;45522;-71
2023/05/04 01:13:27;;;;;;;;;24.33;17.67;;;;;12.15;51.99;101642.03;5033644;27;46183;-71
2023/05/04 01:15:53;;;;;;;;;22.33;21.00;;;;;11.94;52.02;101603.66;5033755;28;45422;-71
2023/05/04 01:18:18;;;;;;;;;19.00;17.67;;;;;11.90;51.72;101590.50;5034121;28;45401;-71
2023/05/04 01:20:44;;;;;;;;;20.67;17.00;;;;;11.90;51.93;101594.00;5033928;28;45339;-71
2023/05/04 01:23:10;;;;;;;;;21.00;18.00;;;;;12.12;51.88;101622.75;5033346;28;46506;-71
2023/05/04 01:25:54;;;;;;;;;25.00;21.33;;;;;12.02;51.93;101611.44;5033960;28;45464;-71
2023/05/04 01:28:40;;;;;;;;;25.00;19.33;;;;;12.04;52.23;101622.88;5033587;28;45363;-71
2023/05/04 01:31:08;;;;;;;;;19.33;17.00;;;;;11.98;52.17;101615.00;5033899;28;45327;-71
2023/05/04 01:33:35;;;;;;;;;22.33;19.33;;;;;12.04;52.22;101629.91;5015435;28;46412;-71
2023/05/04 01:36:01;;;;;;;;;19.00;17.67;;;;;11.99;52.40;101622.03;5033690;28;45257;-71
2023/05/04 01:38:27;;;;;;;;;22.33;17.67;;;;;12.00;52.17;101621.16;5033576;28;45507;-71
2023/05/04 01:40:52;;;;;;;;;23.67;20.00;;;;;11.94;52.46;101619.47;5033719;28;45236;-71
2023/05/04 01:43:18;;;;;;;;;21.00;18.33;;;;;11.85;52.65;101606.41;5033201;27;45403;-71
2023/05/04 01:45:43;;;;;;;;;24.67;18.33;;;;;11.90;53.15;101616.88;5033394;28;45521;-71
2023/05/04 01:48:08;;;;;;;;;21.00;15.33;;;;;11.89;52.66;101612.47;5033738;28;45253;-71
2023/05/04 01:50:34;;;;;;;;;16.00;16.00;;;;;11.87;52.99;101611.66;5033796;27;45414;-71
2023/05/04 01:52:59;;;;;;;;;20.33;14.33;;;;;11.76;53.41;101598.59;5033044;28;45959;-71
2023/05/04 01:55:24;;;;;;;;;19.33;16.67;;;;;11.82;52.73;101609.06;5033549;27;45336;-71
2023/05/04 01:57:49;;;;;;;;;18.67;18.67;;;;;11.79;53.60;101604.72;5033540;27;45248;-71
2023/05/04 02:00:15;;;;;;;;;20.67;19.00;;;;;11.61;54.23;101583.84;5036384;28;45475;-71
2023/05/04 02:02:41;;;;;;;;;23.33;20.33;;;;;11.63;54.03;101590.84;5036302;28;45639;-71
2023/05/04 02:05:06;;;;;;;;;23.67;20.00;;;;;11.60;53.54;101579.47;5036525;27;45350;-71
2023/05/04 02:07:32;;;;;;;;;21.67;19.00;;;;;11.63;53.90;101588.22;5035772;28;45314;-71
2023/05/04 02:09:57;;;;;;;;;25.33;22.33;;;;;11.56;53.99;101586.56;5036487;28;45376;-71
2023/05/04 02:12:22;;;;;;;;;23.67;18.67;;;;;11.62;54.99;101597.03;5036506;27;46401;-71
2023/05/04 02:14:48;;;;;;;;;24.00;20.00;;;;;11.58;54.54;101586.53;5036297;28;45381;-70
2023/05/04 02:17:13;;;;;;;;;25.67;20.00;;;;;11.55;54.80;101583.94;5036464;28;45381;-71
2023/05/04 02:19:38;;;;;;;;;20.67;19.33;;;;;11.43;54.50;101569.13;5036529;28;45399;-71
2023/05/04 02:22:04;;;;;;;;;25.33;20.00;;;;;11.53;54.96;101585.72;5036178;27;46373;-71
2023/05/04 02:24:29;;;;;;;;;22.33;20.67;;;;;11.50;55.14;101589.25;5036141;28;45281;-71
2023/05/04 02:26:54;;;;;;;;;21.00;19.67;;;;;11.44;54.98;101577.03;5036351;28;45395;-71
2023/05/04 02:29:20;;;;;;;;;23.00;21.67;;;;;11.46;55.25;101588.44;5036399;28;45602;-71
2023/05/04 02:31:45;;;;;;;;;20.00;19.00;;;;;11.48;55.16;101589.28;5035983;27;46154;-71
2023/05/04 02:34:10;;;;;;;;;21.33;21.33;;;;;11.44;55.56;101578.78;5035965;28;45261;-71
2023/05/04 02:36:35;;;;;;;;;17.33;16.33;;;;;11.45;55.56;101581.41;5036260;28;45311;-71
2023/05/04 02:39:01;;;;;;;;;23.00;20.00;;;;;11.32;55.78;101556.97;5036315;27;45188;-71
2023/05/04 02:41:26;;;;;;;;;25.00;21.33;;;;;11.50;55.59;101589.25;5036029;28;46195;-71
2023/05/04 02:43:52;;;;;;;;;22.00;20.67;;;;;11.36;55.65;101565.72;5035699;27;45668;-71
2023/05/04 02:46:18;;;;;;;;;16.67;15.67;;;;;11.24;56.04;101539.50;5036287;28;45364;-71
2023/05/04 02:48:44;;;;;;;;;25.00;20.67;;;;;11.40;55.69;101572.69;5036405;27;45266;-71
2023/05/04 02:51:09;;;;;;;;;25.00;22.33;;;;;11.45;55.83;101577.91;5035900;27;46200;-71
2023/05/04 02:53:34;;;;;;;;;21.67;18.00;;;;;11.42;56.11;101580.59;5035698;28;45243;-71
2023/05/04 02:56:00;;;;;;;;;22.33;19.33;;;;;11.46;55.91;101593.72;5035841;28;45431;-72
2023/05/04 02:58:25;;;;;;;;;24.00;18.33;;;;;11.21;56.29;101550.06;5035960;28;45419;-71
2023/05/04 03:00:57;;;;;;;;;21.00;19.00;;;;;11.40;56.13;101580.63;5035657;28;47140;-71
2023/05/04 03:03:22;;;;;;;;;18.33;17.33;;;;;11.36;56.35;101557.81;5035764;27;45279;-71
2023/05/04 03:05:47;;;;;;;;;25.00;18.00;;;;;11.32;55.84;101561.38;5035915;28;45325;-71
2023/05/04 03:08:12;;;;;;;;;21.67;19.33;;;;;11.28;56.66;101557.91;5035661;28;45302;-71
2023/05/04 03:10:38;;;;;;;;;25.00;21.67;;;;;11.36;56.74;101580.69;5035282;28;45387;-71
2023/05/04 03:13:04;;;;;;;;;23.00;19.33;;;;;11.28;57.10;101557.91;5035683;28;45143;-71
2023/05/04 03:15:33;;;;;;;;;22.67;21.00;;;;;11.28;57.25;101563.19;5035784;28;45400;-71
2023/05/04 03:17:59;;;;;;;;;24.00;22.67;;;;;11.28;57.55;101564.94;5035703;28;45378;-71
2023/05/04 03:20:24;;;;;;;;;22.33;20.33;;;;;11.27;57.33;101561.44;5035369;28;45984;-71
2023/05/04 03:22:49;;;;;;;;;28.33;23.00;;;;;11.26;56.77;101562.31;5035259;28;45719;-70
2023/05/04 03:25:15;;;;;;;;;21.00;20.00;;;;;11.21;57.42;101558.88;5035565;28;45399;-71
2023/05/04 03:27:40;;;;;;;;;21.67;20.33;;;;;10.91;57.72;101507.41;5035860;28;45193;-71
2023/05/04 03:30:06;;;;;;;;;17.33;15.33;;;;;11.19;57.61;101557.16;5035221;28;46364;-71
2023/05/04 03:32:32;;;;;;;;;21.67;20.00;;;;;11.10;57.76;101543.19;5035189;27;45183;-71
2023/05/04 03:34:57;;;;;;;;;25.67;22.33;;;;;11.03;57.84;101533.59;5035288;28;45298;-71
2023/05/04 03:37:23;;;;;;;;;21.67;19.00;;;;;11.13;57.62;101552.81;5035436;28;45594;-71
2023/05/04 03:39:48;;;;;;;;;21.33;19.33;;;;;11.11;57.92;101558.13;5035074;27;45546;-71
2023/05/04 03:42:13;;;;;;;;;19.67;18.33;;;;;11.05;57.86;101546.75;5017440;28;45506;-71
2023/05/04 03:44:39;;;;;;;;;21.67;20.00;;;;;11.06;57.33;101544.09;5034866;28;45313;-70
2023/05/04 03:47:04;;;;;;;;;24.00;20.00;;;;;10.96;58.43;101526.66;5032481;28;45502;-71
2023/05/04 03:49:31;;;;;;;;;22.00;20.33;;;;;11.03;58.31;101536.25;5020748;27;45630;-70
2023/05/04 03:51:56;;;;;;;;;20.33;18.00;;;;;10.94;58.31;101528.44;5019796;28;45367;-70
2023/05/04 03:54:21;;;;;;;;;27.00;21.33;;;;;10.96;58.65;101529.28;5015131;27;45311;-71
2023/05/04 03:56:46;;;;;;;;;14.67;14.00;;;;;10.80;58.58;101510.16;5015284;28;45301;-70
2023/05/04 03:59:12;;;;;;;;;24.00;20.67;;;;;10.95;58.89;101540.75;5015052;28;46530;-71
2023/05/04 04:01:37;;;;;;;;;25.67;21.00;;;;;10.97;58.71;101537.19;5015224;28;45317;-71
2023/05/04 04:04:03;;;;;;;;;25.00;22.33;;;;;10.74;58.31;101492.66;5015082;28;45321;-71
2023/05/04 04:06:28;;;;;;;;;24.67;22.33;;;;;10.87;58.83;101517.09;5015426;28;45298;-71
2023/05/04 04:08:53;;;;;;;;;21.33;20.00;;;;;10.75;58.98;101504.94;5014644;28;45998;-71
2023/05/04 04:11:19;;;;;;;;;18.67;18.67;;;;;10.91;58.75;101529.34;5014874;28;45246;-71
2023/05/04 04:13:44;;;;;;;;;23.00;21.33;;;;;10.99;59.03;101537.16;5015109;28;45388;-71
2023/05/04 04:16:09;;;;;;;;;21.33;19.00;;;;;10.93;58.94;101529.34;5015074;27;45503;-71
2023/05/04 04:18:35;;;;;;;;;24.33;19.67;;;;;10.89;58.85;101524.97;5014842;28;46320;-71
2023/05/04 04:21:00;;;;;;;;;23.33;19.67;;;;;10.86;58.78;101525.88;5014180;28;45498;-71
2023/05/04 04:23:25;;;;;;;;;19.33;17.00;;;;;10.95;58.39;101541.59;5014482;28;45700;-71
2023/05/04 04:25:52;;;;;;;;;28.00;24.00;;;;;10.89;59.25;101530.25;5015200;28;45416;-71
2023/05/04 04:28:18;;;;;;;;;2.00;0.00;;;;;10.89;58.41;101535.53;5014733;28;45659;-71
2023/05/04 04:30:43;;;;;;;;;22.00;21.00;;;;;10.80;59.27;101512.78;5014689;28;45428;-71
2023/05/04 04:33:09;;;;;;;;;24.33;21.00;;;;;10.92;59.41;101530.22;5014626;28;45327;-71
2023/05/04 04:35:34;;;;;;;;;27.33;20.33;;;;;10.83;59.22;101514.53;5014805;28;45374;-71
2023/05/04 04:38:00;;;;;;;;;26.00;23.00;;;;;10.85;59.06;101513.63;5014458;28;46212;-71
2023/05/04 04:40:25;;;;;;;;;16.33;14.67;;;;;10.86;58.89;101517.13;5014559;28;45343;-71
2023/05/04 04:42:51;;;;;;;;;22.00;19.33;;;;;10.88;59.39;101521.50;5014583;28;45363;-71
2023/05/04 04:45:17;;;;;;;;;20.33;18.67;;;;;10.86;59.05;101520.63;5014497;27;45286;-71
2023/05/04 04:47:43;;;;;;;;;26.00;21.00;;;;;10.78;59.12;101510.19;5014312;28;46541;-71
2023/05/04 04:50:10;;;;;;;;;26.33;20.00;;;;;10.82;58.70;101502.22;5014387;28;45385;-71
2023/05/04 04:52:35;;;;;;;;;26.67;20.33;;;;;10.87;59.56;101522.38;5015534;27;45627;-72
2023/05/04 04:55:01;;;;;;;;;13.33;12.67;;;;;10.86;59.34;101514.47;5014660;28;45245;-71
2023/05/04 04:57:27;;;;;;;;;25.00;23.67;;;;;10.77;59.36;101505.78;5013995;28;47276;-71
2023/05/04 04:59:52;;;;;;;;;24.33;19.00;;;;;10.85;59.60;101508.34;5014115;28;45175;-71
2023/05/04 05:02:21;;;;;;;;;28.33;22.67;;;;;10.93;59.51;101518.78;5014449;28;45268;-71
2023/05/04 05:04:47;;;;;;;;;23.33;22.00;;;;;10.89;58.95;101490.72;5014390;28;45347;-71
2023/05/04 05:07:12;;;;;;;;;21.33;21.33;;;;;10.97;58.51;101502.91;5014053;28;46061;-71
2023/05/04 05:09:37;;;;;;;;;23.00;20.67;;;;;10.99;59.01;101505.53;5013914;28;45356;-71
2023/05/04 05:12:04;;;;;;;;;23.00;20.67;;;;;11.04;59.04;101514.28;5014024;28;45350;-71
2023/05/04 05:14:30;;;;;;;;;20.00;18.67;;;;;10.80;59.12;101475.91;5014248;28;45377;-71
2023/05/04 05:16:56;;;;;;;;;26.33;20.67;;;;;11.10;59.09;101521.22;5015240;27;46372;-72
2023/05/04 05:19:22;;;;;;;;;23.33;21.33;;;;;10.86;59.30;101477.59;5013677;28;45361;-71
2023/05/04 05:21:48;;;;;;;;;22.33;19.67;;;;;11.68;58.46;101525.69;5013985;28;45741;-71
2023/05/04 05:24:13;;;;;;;;;17.00;15.33;;;;;12.62;55.54;101503.91;5013977;28;45504;-71
2023/05/04 05:26:39;;;;;;;;;24.00;22.33;;;;;12.60;54.44;101476.66;5013789;28;45246;-72
2023/05/04 05:29:04;;;;;;;;;23.67;21.33;;;;;12.54;55.03;101517.28;5013818;28;45245;-72
2023/05/04 05:31:30;;;;;;;;;21.33;21.00;;;;;12.29;55.52;101514.22;5014605;28;45348;-72
2023/05/04 05:33:55;;;;;;;;;21.00;17.33;;;;;12.23;55.98;101525.75;5014712;28;45548;-71
2023/05/04 05:36:21;;;;;;;;;29.67;24.33;;;;;12.35;55.69;101511.47;5016535;28;46093;-71
2023/05/04 05:38:46;;;;;;;;;22.33;19.33;;;;;12.54;55.06;101515.50;5016603;28;45423;-71
2023/05/04 05:41:11;;;;;;;;;16.33;15.67;;;;;13.00;54.63;101524.31;5016710;28;45878;-72
2023/05/04 05:43:37;;;;;;;;;25.00;21.33;;;;;13.55;52.70;101517.00;5016656;28;45346;-71
2023/05/04 05:46:04;;;;;;;;;24.33;18.33;;;;;13.60;52.65;101527.47;5016488;28;46431;-71
2023/05/04 05:48:29;;;;;;;;;22.00;19.00;;;;;13.21;52.86;101522.97;5016586;28;45402;-71
2023/05/04 05:50:55;;;;;;;;;24.67;17.33;;;;;13.01;53.74;101523.44;5016679;28;45315;-71
2023/05/04 05:53:20;;;;;;;;;23.00;21.00;;;;;12.70;53.91;101484.38;5016451;28;45433;-71
2023/05/04 05:55:46;;;;;;;;;24.00;20.00;;;;;12.86;54.41;101532.50;5016514;28;45485;-72
2023/05/04 05:58:11;;;;;;;;;25.67;23.67;;;;;12.81;54.47;101523.81;5016496;28;45313;-71
2023/05/04 06:00:37;;;;;;;;;23.00;19.00;;;;;12.73;54.69;101499.31;5016439;28;45417;-71
2023/05/04 06:03:02;;;;;;;;;22.33;21.00;;;;;12.78;55.04;101499.22;5016580;28;45557;-71
2023/05/04 06:05:27;;;;;;;;;19.67;19.00;;;;;12.93;54.32;101500.69;5016350;28;46245;-72
2023/05/04 06:07:53;;;;;;;;;23.33;19.00;;;;;12.87;54.55;101486.69;5016329;28;45547;-71
2023/05/04 06:10:18;;;;;;;;;25.33;20.00;;;;;12.96;54.26;101495.34;5016350;28;45263;-72
2023/05/04 06:12:43;;;;;;;;;17.00;15.33;;;;;13.03;54.16;101494.31;5015368;28;45555;-71
2023/05/04 06:15:10;;;;;;;;;24.00;19.00;;;;;13.02;54.12;101489.91;5016369;28;46318;-71
2023/05/04 06:17:35;;;;;;;;;18.00;16.00;;;;;12.81;53.95;101446.28;5016244;28;45401;-71
2023/05/04 06:20:01;;;;;;;;;21.33;20.33;;;;;12.93;54.02;101475.13;5016316;28;45861;-71
2023/05/04 06:22:26;;;;;;;;;22.33;19.67;;;;;12.77;53.63;101449.91;5016442;28;45551;-71
2023/05/04 06:24:51;;;;;;;;;22.33;18.33;;;;;12.97;54.12;101481.19;5015787;28;46643;-71
2023/05/04 06:27:17;;;;;;;;;22.67;22.67;;;;;12.91;53.98;101471.66;5015211;28;45370;-71
2023/05/04 06:29:42;;;;;;;;;21.33;17.33;;;;;12.96;53.62;101468.91;5016125;28;45418;-71
2023/05/04 06:32:09;;;;;;;;;18.67;15.33;;;;;12.91;53.74;101457.53;5016457;28;45350;-71
2023/05/04 06:34:35;;;;;;;;;22.67;18.33;;;;;13.05;53.98;101464.28;5015811;28;46188;-71
2023/05/04 06:37:00;;;;;;;;;25.00;20.67;;;;;13.15;53.32;101462.31;5017931;27;45380;-72
2023/05/04 06:39:25;;;;;;;;;27.33;20.67;;;;;13.28;53.19;101473.50;5016048;28;45438;-71
2023/05/04 06:41:54;;;;;;;;;26.00;20.67;;;;;13.30;53.35;101465.50;5016440;28;45438;-71
2023/05/04 06:44:19;;;;;;;;;19.67;19.00;;;;;13.23;53.00;101455.09;5015203;28;46247;-71
2023/05/04 06:46:44;;;;;;;;;21.67;17.00;;;;;13.24;53.61;101462.13;5015841;28;45261;-71
2023/05/04 06:49:11;;;;;;;;;22.00;19.00;;;;;13.37;53.39;101459.22;5015926;28;45453;-71
2023/05/04 06:51:37;;;;;;;;;19.00;18.00;;;;;13.39;53.30;101453.00;5016143;28;45536;-71
2023/05/04 06:54:03;;;;;;;;;21.67;20.00;;;;;13.43;53.28;101456.41;5015384;28;45376;-72
2023/05/04 06:56:28;;;;;;;;;21.33;20.00;;;;;13.42;53.17;101444.13;5015866;28;45488;-71
2023/05/04 06:58:54;;;;;;;;;25.00;21.00;;;;;13.74;53.12;101455.72;5015977;28;45882;-71
2023/05/04 07:01:19;;;;;;;;;22.33;19.33;;;;;14.45;52.02;101462.69;5015886;28;45362;-71
2023/05/04 07:03:44;;;;;;;;;18.00;17.67;;;;;14.44;51.46;101454.78;5015665;28;46424;-71
2023/05/04 07:06:10;;;;;;;;;19.00;17.33;;;;;14.76;50.97;101448.59;5015545;28;45464;-71
2023/05/04 07:08:36;;;;;;;;;18.67;15.67;;;;;14.79;51.20;101455.59;5015803;28;45303;-71
2023/05/04 07:11:01;;;;;;;;;22.33;22.00;;;;;14.65;51.02;101436.56;5015754;28;45261;-71
2023/05/04 07:13:27;;;;;;;;;21.00;17.33;;;;;14.34;51.58;101406.47;5015426;28;46585;-71
2023/05/04 07:15:52;;;;;;;;;21.00;18.00;;;;;14.48;51.70;101432.59;5015556;28;45452;-71
2023/05/04 07:18:17;;;;;;;;;20.67;19.00;;;;;14.38;51.56;101416.06;5015647;28;45386;-71
2023/05/04 07:20:43;;;;;;;;;17.67;14.33;;;;;14.47;51.79;101433.50;5015702;28;45492;-71
2023/05/04 07:23:08;;;;;;;;;21.00;17.00;;;;;14.38;52.08;101402.81;5015366;28;46496;-71
2023/05/04 07:25:34;;;;;;;;;25.67;22.00;;;;;14.51;51.79;101424.53;5015186;28;45565;-71
2023/05/04 07:27:59;;;;;;;;;22.00;20.00;;;;;14.41;52.28;101375.38;5015613;28;45360;-71
2023/05/04 07:30:25;;;;;;;;;19.67;19.33;;;;;15.19;51.36;101390.75;5015693;28;45263;-71
2023/05/04 07:32:50;;;;;;;;;20.00;20.00;;;;;15.34;50.82;101415.06;5015222;28;46080;-71
2023/05/04 07:35:16;;;;;;;;;22.33;18.33;;;;;15.19;51.23;101388.09;5014367;28;45754;-71
2023/05/04 07:37:42;;;;;;;;;22.67;16.33;;;;;15.32;50.71;101415.97;5015146;28;45427;-71
2023/05/04 07:40:08;;;;;;;;;21.00;15.00;;;;;15.53;50.63;101415.31;5015460;28;45457;-72
2023/05/04 07:42:33;;;;;;;;;15.33;14.67;;;;;16.04;49.41;101408.34;5014959;28;45382;-72
2023/05/04 07:45:00;;;;;;;;;17.33;16.67;;;;;16.51;49.01;101414.59;5031591;27;45395;-72
2023/05/04 07:47:25;;;;;;;;;20.33;17.33;;;;;16.85;47.72;101401.81;5035376;28;45373;-72
2023/05/04 07:49:51;;;;;;;;;17.67;14.67;;;;;16.87;48.09;101408.84;5035176;28;45776;-72
2023/05/04 07:52:18;;;;;;;;;18.00;16.33;;;;;17.12;47.74;101397.25;5034983;28;47898;-72
2023/05/04 07:54:43;;;;;;;;;19.67;16.33;;;;;17.61;46.94;101386.38;5034706;27;45461;-73
2023/05/04 07:57:08;;;;;;;;;20.67;16.67;;;;;17.98;44.97;101355.53;5033695;28;45382;-72
2023/05/04 07:59:34;;;;;;;;;20.00;12.67;;;;;18.02;46.18;101377.56;5035394;28;45214;-72
2023/05/04 08:01:59;;;;;;;;;18.00;13.67;;;;;17.76;46.14;101384.84;5034995;28;45715;-72
2023/05/04 08:04:25;;;;;;;;;19.33;15.00;;;;;17.82;45.93;101386.38;5035017;28;45236;-73
2023/05/04 08:06:50;;;;;;;;;19.33;11.67;;;;;18.20;45.79;101378.56;5035047;28;45718;-72
2023/05/04 08:09:16;;;;;;;;;22.33;14.00;;;;;18.82;44.29;101373.94;5034945;27;45223;-72
2023/05/04 08:11:42;;;;;;;;;11.67;11.67;;;;;18.75;43.88;101370.69;5034687;28;46680;-73
2023/05/04 08:14:07;;;;;;;;;16.33;14.67;;;;;18.53;45.38;101373.50;5034635;28;45357;-73
2023/05/04 08:16:33;;;;;;;;;18.00;18.00;;;;;18.43;45.15;101377.53;5034931;28;45442;-72
2023/05/04 08:19:00;;;;;;;;;18.67;14.33;;;;;18.30;44.96;101355.88;5035027;28;45488;-72
2023/05/04 08:21:26;;;;;;;;;18.67;14.33;;;;;18.29;44.87;101374.63;5034746;27;46453;-72
2023/05/04 08:23:51;;;;;;;;;17.00;15.00;;;;;18.13;45.61;101374.44;5035657;27;45442;-72
2023/05/04 08:26:18;;;;;;;;;14.33;12.33;;;;;18.01;45.45;101381.19;5034619;27;45267;-73
2023/05/04 08:28:45;;;;;;;;;18.67;17.33;;;;;17.83;45.97;101377.47;5035030;27;45321;-72
2023/05/04 08:31:13;;;;;;;;;13.67;11.33;;;;;17.74;46.30;101358.28;5034501;28;45892;-72
2023/05/04 08:33:38;;;;;;;;;18.33;13.00;;;;;17.87;46.17;101369.28;5034283;28;45390;-72
2023/05/04 08:36:06;;;;;;;;;17.00;13.00;;;;;18.14;45.94;101352.16;5034912;27;45421;-72
2023/05/04 08:38:31;;;;;;;;;13.67;13.00;;;;;18.96;44.48;101354.63;5034886;27;45319;-73
2023/05/04 08:40:57;;;;;;;;;14.00;13.33;;;;;19.38;43.79;101345.44;5034351;28;46143;-73
2023/05/04 08:43:23;;;;;;;;;14.33;12.33;;;;;19.20;44.08;101338.34;5034342;27;45331;-73
2023/05/04 08:45:49;;;;;;;;;16.00;13.33;;;;;19.16;44.46;101348.31;5034416;28;45500;-73
2023/05/04 08:48:15;;;;;;;;;13.00;12.33;;;;;19.03;44.68;101342.72;5034894;28;45330;-73
2023/05/04 08:50:41;;;;;;;;;18.67;14.00;;;;;18.77;45.18;101320.78;5034162;28;47222;-72
2023/05/04 08:53:10;;;;;;;;;20.33;16.00;;;;;18.72;45.48;101330.81;5033365;28;45361;-72
2023/05/04 08:55:38;;;;;;;;;8.67;8.67;;;;;18.51;45.34;101302.50;5033809;28;45408;-72
2023/05/04 08:58:11;;;;;;;;;14.67;14.33;;;;;18.64;45.51;101340.97;5034461;28;45477;-72
2023/05/04 09:00:38;;;;;;;;;16.33;13.33;;;;;18.62;45.99;101350.88;5034189;27;47262;-72
2023/05/04 09:03:06;;;;;;;;;19.00;13.33;;;;;18.56;46.37;101329.78;5034088;28;45450;-72
2023/05/04 09:05:31;;;;;;;;;17.33;14.33;;;;;18.56;46.41;101329.78;5034169;28;45435;-73
2023/05/04 09:07:57;;;;;;;;;16.33;12.33;;;;;18.60;46.20;101342.06;5035502;27;45395;-73
2023/05/04 09:10:23;;;;;;;;;18.00;15.33;;;;;18.63;45.99;101347.25;5036935;28;45426;-72
2023/05/04 09:12:49;;;;;;;;;16.00;16.00;;;;;18.61;46.69;101338.47;5037284;27;45354;-72
2023/05/04 09:15:16;;;;;;;;;14.67;12.33;;;;;18.69;46.42;101338.09;5037133;27;45428;-73
2023/05/04 09:17:42;;;;;;;;;15.00;15.00;;;;;18.79;46.66;101331.38;5037468;28;45450;-72
2023/05/04 09:20:08;;;;;;;;;11.67;11.67;;;;;19.05;46.63;101327.47;5036784;28;46202;-73
2023/05/04 09:22:34;;;;;;;;;15.33;13.67;;;;;19.39;45.53;101322.28;5036860;28;45227;-73
2023/05/04 09:25:09;;;;;;;;;13.67;13.67;;;;;19.71;45.54;101325.97;5036970;27;45461;-73
2023/05/04 09:27:36;;;;;;;;;11.67;11.67;;;;;19.84;43.87;101315.53;5037185;28;45578;-72
2023/05/04 09:30:01;;;;;;;;;16.00;14.67;;;;;19.78;44.60;101298.00;5036668;28;46260;-73
2023/05/04 09:32:27;;;;;;;;;13.67;12.00;;;;;19.93;44.80;101309.69;5036579;28;45381;-72
2023/05/04 09:34:53;;;;;;;;;18.00;16.33;;;;;20.14;44.57;101310.38;5018908;28;45423;-73
2023/05/04 09:37:20;;;;;;;;;14.33;14.33;;;;;20.32;43.96;101294.25;5036940;28;45326;-73
2023/05/04 09:39:57;;;;;;;;;16.00;13.67;;;;;20.69;43.73;101295.78;5052291;27;46252;-73
2023/05/04 09:42:23;;;;;;;;;13.33;13.33;;;;;21.15;43.50;101292.25;5036672;28;45472;-73
2023/05/04 09:45:03;;;;;;;;;16.00;14.00;;;;;21.79;43.07;101293.88;5036496;27;45503;-73
2023/05/04 09:47:33;;;;;;;;;16.33;15.33;;;;;22.48;41.78;101268.13;5036699;28;45391;-73
2023/05/04 09:50:20;;;;;;;;;16.67;14.00;;;;;24.22;40.91;101290.38;5036481;28;47383;-73
2023/05/04 09:52:47;;;;;;;;;17.67;16.00;;;;;26.22;35.43;101296.00;5036358;28;45277;-73
2023/05/04 09:55:14;;;;;;;;;18.00;15.67;;;;;28.32;34.64;101299.13;5036493;28;45261;-74
2023/05/04 09:57:41;;;;;;;;;18.67;15.67;;;;;30.18;31.30;101282.81;5036602;28;45307;-73
2023/05/04 10:00:12;;;;;;;;;14.33;12.67;;;;;31.84;28.79;101276.06;5036574;27;45294;-74
2023/05/04 10:02:39;;;;;;;;;14.00;12.00;;;;;33.12;25.41;101272.38;5036196;28;45431;-73
2023/05/04 10:05:06;;;;;;;;;14.00;12.33;;;;;33.86;26.42;101279.66;5036552;28;45382;-74
2023/05/04 10:07:32;;;;;;;;;14.00;14.00;;;;;34.58;26.39;101274.06;5036719;28;45291;-73
2023/05/04 10:10:02;;;;;;;;;16.00;14.67;;;;;35.28;25.06;101263.06;5036132;28;46212;-73
2023/05/04 10:12:27;;;;;;;;;12.00;12.00;;;;;35.12;25.19;101255.88;5035677;28;45300;-73
2023/05/04 10:14:52;;;;;;;;;12.33;12.33;;;;;34.30;23.03;101247.19;5036257;28;45337;-73
2023/05/04 10:18:11;;;;;;;;;12.00;12.00;;;;;33.77;25.51;101255.09;5036457;28;45471;-74
2023/05/04 10:21:01;;;;;;;;;15.67;15.67;;;;;33.98;25.16;101251.78;5036118;28;46584;-73
2023/05/04 10:23:35;;;;;;;;;11.67;11.67;;;;;34.61;25.76;101240.88;5037190;28;45267;-74
2023/05/04 10:26:39;;;;;;;;;8.00;8.00;;;;;35.39;25.41;101233.41;5036950;28;45389;-74
2023/05/04 10:29:16;;;;;;;;;9.33;8.67;;;;;36.31;24.16;101224.94;5037525;28;45391;-74
2023/05/04 10:31:42;;;;;;;;;9.33;9.33;;;;;36.26;24.34;101217.28;5036859;28;46199;-74
2023/05/04 10:34:09;;;;;;;;;10.00;10.00;;;;;36.17;22.10;101207.47;5036944;28;45330;-73
2023/05/04 10:36:38;;;;;;;;;11.00;11.00;;;;;35.97;22.96;101208.06;5037274;28;45466;-73
2023/05/04 10:39:16;;;;;;;;;9.67;8.33;;;;;35.88;21.96;101214.72;5037188;28;45540;-71
2023/05/04 10:41:41;;;;;;;;;9.00;7.67;;;;;35.76;22.12;101205.22;5036620;28;47215;-71
2023/05/04 10:44:08;;;;;;;;;10.00;10.00;;;;;35.70;22.13;101184.97;5036552;28;45504;-74
2023/05/04 10:46:34;;;;;;;;;10.67;10.33;;;;;35.54;22.49;101192.31;5037147;28;45554;-74
2023/05/04 10:48:59;;;;;;;;;10.33;10.00;;;;;35.34;22.22;101181.06;5036995;28;45561;-74
2023/05/04 10:51:25;;;;;;;;;11.00;9.67;;;;;34.92;21.96;101162.50;5035982;28;47222;-73
2023/05/04 10:53:51;;;;;;;;;12.33;11.67;;;;;33.95;23.33;101156.47;5035570;28;45608;-74
2023/05/04 10:56:20;;;;;;;;;11.67;10.00;;;;;32.91;23.94;101152.81;5035742;28;45311;-74
2023/05/04 10:58:46;;;;;;;;;8.33;8.33;;;;;32.16;24.34;101142.91;5036180;27;45222;-74
2023/05/04 11:01:12;;;;;;;;;11.33;11.00;;;;;31.29;24.86;101135.69;5035271;28;46253;-74
2023/05/04 11:03:39;;;;;;;;;12.33;11.67;;;;;30.48;25.98;101139.47;5034729;28;45327;-73
2023/05/04 11:06:17;;;;;;;;;11.00;10.00;;;;;29.67;27.05;101150.09;5035811;27;45352;-74